createdAt,value
2018-11-21T00:00:50.349Z,978.832
2018-11-21T00:02:50.180Z,978.824
2018-11-21T00:04:50.340Z,978.787
2018-11-21T00:06:50.306Z,978.784
2018-11-21T00:08:50.171Z,978.789
2018-11-21T00:10:50.024Z,978.788
2018-11-21T00:12:49.825Z,978.816
2018-11-21T00:14:49.642Z,978.814
2018-11-21T00:16:49.697Z,978.815
2018-11-21T00:18:50.566Z,978.808
2018-11-21T00:20:50.388Z,978.813
2018-11-21T00:22:50.227Z,978.831
2018-11-21T00:24:49.971Z,978.854
2018-11-21T00:26:50.095Z,978.847
2018-11-21T00:28:50.003Z,978.869
2018-11-21T00:30:49.847Z,978.866
2018-11-21T00:32:49.627Z,978.876
2018-11-21T00:34:49.796Z,978.877
2018-11-21T00:36:49.859Z,978.869
2018-11-21T00:38:49.774Z,978.869
2018-11-21T00:40:49.658Z,978.880
2018-11-21T00:42:50.565Z,978.879
2018-11-21T00:44:50.469Z,978.873
2018-11-21T00:46:50.425Z,978.849
2018-11-21T00:48:50.315Z,978.838
2018-11-21T00:50:50.169Z,978.859
2018-11-21T00:52:50.001Z,978.887
2018-11-21T00:54:49.897Z,978.922
2018-11-21T00:56:49.990Z,978.937
2018-11-21T00:58:49.813Z,978.935
2018-11-21T01:00:49.734Z,978.941
2018-11-21T01:02:50.593Z,978.995
2018-11-21T01:04:49.775Z,979.021
2018-11-21T01:06:49.838Z,979.061
2018-11-21T01:08:49.740Z,979.095
2018-11-21T01:10:50.577Z,979.110
2018-11-21T01:12:50.374Z,979.110
2018-11-21T01:14:50.275Z,979.100
2018-11-21T01:16:50.284Z,979.104
2018-11-21T01:18:50.179Z,979.137
2018-11-21T01:20:50.026Z,979.137
2018-11-21T01:22:49.863Z,979.164
2018-11-21T01:24:49.754Z,979.163
2018-11-21T01:26:49.765Z,979.162
2018-11-21T01:28:50.550Z,979.158
2018-11-21T01:30:50.400Z,979.159
2018-11-21T01:32:50.184Z,979.152
2018-11-21T01:34:50.357Z,979.157
2018-11-21T01:36:50.385Z,979.162
2018-11-21T01:38:50.162Z,979.153
2018-11-21T01:40:50.003Z,979.121
2018-11-21T01:42:49.873Z,979.094
2018-11-21T01:44:49.738Z,979.077
2018-11-21T01:46:49.732Z,979.090
2018-11-21T01:48:49.765Z,979.105
2018-11-21T01:50:50.512Z,979.133
2018-11-21T01:52:50.428Z,979.131
2018-11-21T01:54:50.240Z,979.113
2018-11-21T01:56:50.268Z,979.117
2018-11-21T01:58:50.019Z,979.086
2018-11-21T02:00:49.902Z,979.044
2018-11-21T02:02:49.850Z,978.986
2018-11-21T02:04:49.908Z,978.935
2018-11-21T02:06:49.985Z,978.879
2018-11-21T02:08:49.948Z,978.853
2018-11-21T02:10:49.760Z,978.861
2018-11-21T02:12:49.737Z,978.893
2018-11-21T02:14:49.807Z,978.905
2018-11-21T02:16:49.956Z,978.911
2018-11-21T02:18:49.904Z,978.912
2018-11-21T02:20:49.948Z,978.918
2018-11-21T02:22:49.878Z,978.924
2018-11-21T02:24:49.796Z,978.947
2018-11-21T02:26:49.894Z,978.961
2018-11-21T02:28:49.775Z,978.942
2018-11-21T02:30:49.751Z,978.964
2018-11-21T02:32:49.599Z,978.972
2018-11-21T02:34:49.897Z,978.996
2018-11-21T02:36:50.003Z,979.012
2018-11-21T02:38:49.822Z,979.028
2018-11-21T02:40:49.628Z,979.031
2018-11-21T02:42:50.509Z,979.032
2018-11-21T02:44:50.339Z,979.032
2018-11-21T02:46:50.453Z,979.041
2018-11-21T02:48:50.298Z,979.057
2018-11-21T02:50:50.126Z,979.083
2018-11-21T02:52:49.907Z,979.096
2018-11-21T02:54:49.678Z,979.107
2018-11-21T02:56:49.722Z,979.116
2018-11-21T02:58:49.691Z,979.116
2018-11-21T03:00:50.575Z,979.062
2018-11-21T03:02:50.472Z,979.059
2018-11-21T03:04:50.522Z,979.084
2018-11-21T03:06:49.644Z,979.112
2018-11-21T03:08:49.862Z,979.126
2018-11-21T03:10:49.744Z,979.136
2018-11-21T03:12:50.564Z,979.136
2018-11-21T03:14:50.485Z,979.145
2018-11-21T03:16:50.530Z,979.145
2018-11-21T03:18:50.416Z,979.174
2018-11-21T03:20:50.212Z,979.244
2018-11-21T03:22:50.098Z,979.287
2018-11-21T03:24:49.946Z,979.308
2018-11-21T03:26:50.088Z,979.309
2018-11-21T03:28:49.888Z,979.309
2018-11-21T03:30:49.747Z,979.262
2018-11-21T03:32:49.757Z,979.285
2018-11-21T03:34:49.862Z,979.325
2018-11-21T03:36:49.863Z,979.362
2018-11-21T03:38:49.773Z,979.404
2018-11-21T03:40:49.655Z,979.448
2018-11-21T03:42:50.514Z,979.465
2018-11-21T03:44:50.357Z,979.454
2018-11-21T03:46:50.352Z,979.446
2018-11-21T03:48:50.135Z,979.430
2018-11-21T03:50:49.909Z,979.443
2018-11-21T03:52:49.776Z,979.417
2018-11-21T03:54:49.628Z,979.424
2018-11-21T03:56:49.847Z,979.451
2018-11-21T03:58:49.843Z,979.486
2018-11-21T04:00:49.836Z,979.523
2018-11-21T04:02:49.903Z,979.553
2018-11-21T04:04:50.035Z,979.566
2018-11-21T04:06:50.197Z,979.591
2018-11-21T04:08:50.128Z,979.619
2018-11-21T04:10:50.104Z,979.673
2018-11-21T04:12:50.106Z,979.704
2018-11-21T04:14:50.117Z,979.720
2018-11-21T04:16:50.326Z,979.709
2018-11-21T04:18:50.291Z,979.691
2018-11-21T04:20:50.258Z,979.689
2018-11-21T04:22:50.256Z,979.703
2018-11-21T04:24:50.316Z,979.725
2018-11-21T04:26:50.439Z,979.731
2018-11-21T04:28:50.411Z,979.788
2018-11-21T04:30:50.369Z,979.794
2018-11-21T04:32:50.384Z,979.789
2018-11-21T04:34:49.810Z,979.795
2018-11-21T04:36:49.969Z,979.811
2018-11-21T04:38:49.992Z,979.842
2018-11-21T04:40:49.941Z,979.842
2018-11-21T04:42:49.950Z,979.848
2018-11-21T04:44:49.838Z,979.848
2018-11-21T04:46:50.054Z,979.874
2018-11-21T04:48:50.029Z,979.870
2018-11-21T04:50:50.028Z,979.859
2018-11-21T04:52:50.076Z,979.859
2018-11-21T04:54:50.018Z,979.855
2018-11-21T04:56:50.173Z,979.856
2018-11-21T04:58:50.112Z,979.889
2018-11-21T05:00:50.101Z,979.900
2018-11-21T05:02:50.064Z,979.896
2018-11-21T05:04:50.420Z,979.896
2018-11-21T05:06:49.614Z,979.927
2018-11-21T05:08:50.598Z,979.961
2018-11-21T05:10:49.631Z,979.966
2018-11-21T05:12:49.704Z,979.985
2018-11-21T05:14:49.630Z,979.985
2018-11-21T05:16:49.750Z,979.994
2018-11-21T05:18:49.779Z,980.015
2018-11-21T05:20:49.810Z,980.044
2018-11-21T05:22:49.804Z,980.044
2018-11-21T05:24:49.869Z,980.085
2018-11-21T05:26:49.704Z,980.103
2018-11-21T05:28:49.685Z,980.137
2018-11-21T05:30:49.680Z,980.150
2018-11-21T05:32:49.739Z,980.183
2018-11-21T05:34:50.108Z,980.215
2018-11-21T05:36:50.324Z,980.240
2018-11-21T05:38:50.374Z,980.289
2018-11-21T05:40:50.422Z,980.313
2018-11-21T05:42:50.359Z,980.333
2018-11-21T05:44:50.450Z,980.365
2018-11-21T05:46:53.936Z,980.383
2018-11-21T05:48:49.872Z,980.405
2018-11-21T05:50:49.887Z,980.416
2018-11-21T05:52:49.871Z,980.423
2018-11-21T05:54:49.826Z,980.435
2018-11-21T05:56:50.138Z,980.456
2018-11-21T05:58:50.131Z,980.454
2018-11-21T06:00:50.108Z,980.456
2018-11-21T06:02:50.107Z,980.457
2018-11-21T06:04:50.333Z,980.462
2018-11-21T06:06:49.643Z,980.473
2018-11-21T06:08:49.691Z,980.474
2018-11-21T06:10:49.621Z,980.471
2018-11-21T06:12:49.662Z,980.484
2018-11-21T06:14:49.729Z,980.490
2018-11-21T06:16:49.953Z,980.501
2018-11-21T06:18:49.961Z,980.523
2018-11-21T06:20:49.952Z,980.533
2018-11-21T06:22:49.961Z,980.544
2018-11-21T06:24:49.908Z,980.571
2018-11-21T06:26:50.116Z,980.579
2018-11-21T06:28:50.056Z,980.611
2018-11-21T06:30:50.124Z,980.648
2018-11-21T06:32:50.070Z,980.668
2018-11-21T06:34:50.375Z,980.719
2018-11-21T06:36:50.241Z,980.746
2018-11-21T06:38:50.164Z,980.756
2018-11-21T06:40:50.161Z,980.745
2018-11-21T06:42:50.142Z,980.717
2018-11-21T06:44:50.116Z,980.721
2018-11-21T06:46:50.301Z,980.730
2018-11-21T06:48:50.287Z,980.798
2018-11-21T06:50:50.238Z,980.793
2018-11-21T06:52:50.289Z,980.815
2018-11-21T06:54:50.187Z,980.817
2018-11-21T06:56:50.398Z,980.817
2018-11-21T06:58:55.435Z,980.837
2018-11-21T07:00:50.361Z,980.840
2018-11-21T07:02:50.409Z,980.821
2018-11-21T07:04:49.609Z,980.817
2018-11-21T07:06:49.834Z,980.827
2018-11-21T07:08:49.780Z,980.855
2018-11-21T07:10:49.660Z,980.906
2018-11-21T07:12:49.624Z,980.910
2018-11-21T07:14:49.629Z,980.940
2018-11-21T07:16:49.751Z,980.970
2018-11-21T07:18:49.768Z,980.967
2018-11-21T07:20:49.744Z,980.976
2018-11-21T07:22:49.764Z,980.966
2018-11-21T07:24:49.768Z,980.958
2018-11-21T07:26:50.032Z,980.971
2018-11-21T07:28:50.010Z,980.978
2018-11-21T07:30:49.943Z,980.996
2018-11-21T07:32:49.933Z,981.002
2018-11-21T07:34:50.155Z,981.015
2018-11-21T07:36:50.192Z,981.045
2018-11-21T07:38:50.150Z,981.057
2018-11-21T07:40:50.180Z,981.067
2018-11-21T07:42:50.163Z,981.080
2018-11-21T07:44:50.071Z,981.092
2018-11-21T07:46:50.260Z,981.091
2018-11-21T07:48:50.185Z,981.115
2018-11-21T07:50:50.202Z,981.151
2018-11-21T07:52:50.218Z,981.174
2018-11-21T07:54:50.132Z,981.204
2018-11-21T07:56:50.333Z,981.208
2018-11-21T07:58:50.291Z,981.219
2018-11-21T08:00:50.272Z,981.219
2018-11-21T08:02:50.312Z,981.261
2018-11-21T08:04:50.553Z,981.283
2018-11-21T08:06:49.792Z,981.291
2018-11-21T08:08:49.890Z,981.303
2018-11-21T08:10:50.305Z,981.317
2018-11-21T08:12:50.289Z,981.335
2018-11-21T08:14:49.988Z,981.359
2018-11-21T08:16:50.143Z,981.374
2018-11-21T08:18:50.156Z,981.362
2018-11-21T08:20:50.083Z,981.381
2018-11-21T08:22:50.103Z,981.421
2018-11-21T08:24:50.151Z,981.430
2018-11-21T08:26:49.815Z,981.422
2018-11-21T08:28:49.902Z,981.427
2018-11-21T08:30:49.889Z,981.463
2018-11-21T08:32:49.877Z,981.498
2018-11-21T08:34:50.104Z,981.498
2018-11-21T08:36:50.292Z,981.542
2018-11-21T08:38:50.209Z,981.553
2018-11-21T08:40:50.180Z,981.566
2018-11-21T08:42:50.257Z,981.604
2018-11-21T08:44:50.285Z,981.604
2018-11-21T08:46:50.380Z,981.639
2018-11-21T08:48:50.448Z,981.653
2018-11-21T08:50:50.434Z,981.676
2018-11-21T08:52:50.447Z,981.708
2018-11-21T08:54:50.458Z,981.708
2018-11-21T08:56:50.569Z,981.758
2018-11-21T08:58:50.579Z,981.750
2018-11-21T09:00:50.521Z,981.758
2018-11-21T09:02:50.511Z,981.758
2018-11-21T09:04:50.184Z,981.800
2018-11-21T09:06:50.296Z,981.839
2018-11-21T09:08:50.237Z,981.852
2018-11-21T09:10:50.146Z,981.864
2018-11-21T09:12:50.049Z,981.876
2018-11-21T09:14:49.989Z,981.867
2018-11-21T09:16:50.099Z,981.853
2018-11-21T09:18:50.141Z,981.858
2018-11-21T09:20:50.058Z,981.884
2018-11-21T09:22:50.005Z,981.898
2018-11-21T09:24:50.028Z,981.906
2018-11-21T09:26:50.233Z,981.922
2018-11-21T09:28:50.170Z,981.966
2018-11-21T09:30:50.145Z,981.997
2018-11-21T09:32:50.184Z,982.041
2018-11-21T09:34:50.436Z,982.056
2018-11-21T09:36:49.632Z,982.063
2018-11-21T09:38:49.987Z,982.056
2018-11-21T09:40:49.945Z,982.088
2018-11-21T09:42:49.922Z,982.118
2018-11-21T09:44:49.912Z,982.140
2018-11-21T09:46:50.044Z,982.134
2018-11-21T09:48:50.053Z,982.119
2018-11-21T09:50:49.993Z,982.121
2018-11-21T09:52:50.722Z,982.123
2018-11-21T09:54:49.730Z,982.134
2018-11-21T09:56:49.815Z,982.129
2018-11-21T09:58:49.758Z,982.140
2018-11-21T10:00:49.762Z,982.155
2018-11-21T10:02:49.730Z,982.138
2018-11-21T10:04:50.349Z,982.126
2018-11-21T10:06:50.420Z,982.126
2018-11-21T10:08:50.372Z,982.129
2018-11-21T10:10:50.320Z,982.133
2018-11-21T10:12:50.261Z,982.131
2018-11-21T10:14:50.185Z,982.118
2018-11-21T10:16:50.328Z,982.121
2018-11-21T10:18:50.348Z,982.129
2018-11-21T10:20:50.463Z,982.126
2018-11-21T10:22:50.494Z,982.126
2018-11-21T10:24:50.466Z,982.078
2018-11-21T10:26:49.657Z,982.088
2018-11-21T10:28:49.746Z,982.105
2018-11-21T10:30:49.746Z,982.104
2018-11-21T10:32:49.768Z,982.090
2018-11-21T10:34:50.162Z,982.079
2018-11-21T10:36:50.309Z,982.069
2018-11-21T10:38:50.332Z,982.050
2018-11-21T10:40:50.378Z,982.027
2018-11-21T10:42:50.491Z,981.955
2018-11-21T10:44:50.470Z,981.919
2018-11-21T10:46:49.708Z,981.901
2018-11-21T10:48:49.779Z,981.900
2018-11-21T10:50:49.775Z,981.913
2018-11-21T10:52:49.782Z,981.920
2018-11-21T10:54:49.782Z,981.903
2018-11-21T10:56:50.045Z,981.888
2018-11-21T10:58:50.076Z,981.871
2018-11-21T11:00:50.038Z,981.866
2018-11-21T11:02:49.951Z,981.848
2018-11-21T11:04:49.617Z,981.852
2018-11-21T11:06:49.782Z,981.870
2018-11-21T11:08:49.632Z,981.863
2018-11-21T11:10:50.382Z,981.872
2018-11-21T11:12:50.453Z,981.855
2018-11-21T11:14:50.371Z,981.865
2018-11-21T11:16:50.517Z,981.862
2018-11-21T11:18:50.437Z,981.837
2018-11-21T11:20:50.333Z,981.814
2018-11-21T11:22:50.396Z,981.800
2018-11-21T11:24:50.066Z,981.791
2018-11-21T11:26:50.457Z,981.786
2018-11-21T11:28:50.268Z,981.808
2018-11-21T11:30:49.913Z,981.830
2018-11-21T11:32:50.624Z,981.837
2018-11-21T11:34:49.729Z,981.871
2018-11-21T11:36:50.366Z,981.858
2018-11-21T11:38:50.276Z,981.859
2018-11-21T11:40:50.187Z,981.845
2018-11-21T11:42:49.735Z,981.842
2018-11-21T11:44:50.381Z,981.843
2018-11-21T11:46:50.490Z,981.848
2018-11-21T11:48:50.390Z,981.847
2018-11-21T11:50:50.365Z,981.900
2018-11-21T11:52:50.278Z,981.900
2018-11-21T11:54:50.245Z,981.884
2018-11-21T11:56:49.643Z,981.855
2018-11-21T11:58:49.663Z,981.826
2018-11-21T12:00:49.676Z,981.818
2018-11-21T12:02:50.370Z,981.812
2018-11-21T12:04:49.806Z,981.792
2018-11-21T12:06:49.958Z,981.793
2018-11-21T12:08:49.741Z,981.814
2018-11-21T12:10:49.158Z,981.845
2018-11-21T12:12:50.027Z,981.845
2018-11-21T12:14:50.005Z,981.905
2018-11-21T12:16:49.798Z,981.887
2018-11-21T12:18:50.275Z,981.858
2018-11-21T12:20:50.281Z,981.844
2018-11-21T12:22:50.282Z,981.832
2018-11-21T12:24:50.232Z,981.832
2018-11-21T12:26:50.220Z,981.891
2018-11-21T12:28:50.203Z,981.900
2018-11-21T12:30:50.157Z,981.890
2018-11-21T12:32:50.179Z,981.881
2018-11-21T12:34:49.697Z,981.867
2018-11-21T12:36:49.829Z,981.844
2018-11-21T12:38:50.445Z,981.804
2018-11-21T12:40:50.316Z,981.783
2018-11-21T12:42:50.227Z,981.751
2018-11-21T12:44:50.179Z,981.749
2018-11-21T12:46:49.962Z,981.749
2018-11-21T12:48:49.739Z,981.728
2018-11-21T12:50:49.635Z,981.721
2018-11-21T12:52:50.263Z,981.708
2018-11-21T12:54:50.252Z,981.713
2018-11-21T12:56:50.396Z,981.709
2018-11-21T12:58:49.982Z,981.715
2018-11-21T13:00:50.481Z,981.694
2018-11-21T13:02:49.909Z,981.679
2018-11-21T13:04:50.188Z,981.682
2018-11-21T13:06:50.347Z,981.696
2018-11-21T13:08:50.354Z,981.692
2018-11-21T13:10:50.264Z,981.692
2018-11-21T13:12:50.270Z,981.679
2018-11-21T13:14:50.006Z,981.694
2018-11-21T13:16:50.206Z,981.696
2018-11-21T13:18:50.117Z,981.707
2018-11-21T13:20:50.083Z,981.723
2018-11-21T13:22:49.611Z,981.759
2018-11-21T13:24:50.570Z,981.808
2018-11-21T13:26:49.677Z,981.830
2018-11-21T13:28:49.638Z,981.841
2018-11-21T13:30:50.574Z,981.839
2018-11-21T13:32:49.595Z,981.855
2018-11-21T13:34:50.064Z,981.878
2018-11-21T13:36:50.461Z,981.883
2018-11-21T13:38:49.822Z,981.892
2018-11-21T13:40:50.103Z,981.880
2018-11-21T13:42:50.125Z,981.903
2018-11-21T13:44:49.630Z,981.913
2018-11-21T13:46:49.954Z,981.944
2018-11-21T13:48:55.834Z,981.957
2018-11-21T13:50:49.826Z,981.973
2018-11-21T13:52:50.417Z,981.980
2018-11-21T13:54:50.429Z,981.993
2018-11-21T13:56:50.581Z,982.019
2018-11-21T13:58:50.577Z,982.059
2018-11-21T14:00:50.621Z,982.069
2018-11-21T14:02:49.751Z,982.071
2018-11-21T14:04:50.218Z,982.083
2018-11-21T14:06:50.349Z,982.089
2018-11-21T14:08:50.284Z,982.125
2018-11-21T14:10:50.258Z,982.150
2018-11-21T14:12:50.241Z,982.209
2018-11-21T14:14:50.233Z,982.244
2018-11-21T14:16:50.356Z,982.279
2018-11-21T14:18:50.360Z,982.281
2018-11-21T14:20:50.266Z,982.308
2018-11-21T14:22:50.245Z,982.334
2018-11-21T14:24:50.215Z,982.345
2018-11-21T14:26:50.412Z,982.345
2018-11-21T14:28:50.377Z,982.350
2018-11-21T14:30:50.439Z,982.342
2018-11-21T14:32:50.575Z,982.319
2018-11-21T14:34:49.838Z,982.321
2018-11-21T14:36:49.903Z,982.329
2018-11-21T14:38:49.953Z,982.362
2018-11-21T14:40:50.145Z,982.366
2018-11-21T14:42:50.099Z,982.378
2018-11-21T14:44:50.000Z,982.396
2018-11-21T14:46:50.160Z,982.405
2018-11-21T14:48:50.148Z,982.409
2018-11-21T14:50:50.173Z,982.422
2018-11-21T14:52:50.109Z,982.430
2018-11-21T14:54:50.092Z,982.447
2018-11-21T14:56:50.322Z,982.465
2018-11-21T14:58:50.331Z,982.476
2018-11-21T15:00:50.308Z,982.495
2018-11-21T15:02:50.327Z,982.504
2018-11-21T15:04:50.564Z,982.531
2018-11-21T15:06:49.848Z,982.562
2018-11-21T15:08:49.834Z,982.581
2018-11-21T15:10:49.832Z,982.590
2018-11-21T15:12:49.990Z,982.606
2018-11-21T15:14:49.944Z,982.622
2018-11-21T15:16:50.151Z,982.629
2018-11-21T15:18:50.109Z,982.632
2018-11-21T15:20:50.080Z,982.626
2018-11-21T15:22:50.156Z,982.648
2018-11-21T15:24:50.197Z,982.671
2018-11-21T15:26:50.347Z,982.681
2018-11-21T15:28:50.363Z,982.680
2018-11-21T15:30:50.308Z,982.681
2018-11-21T15:32:50.413Z,982.673
2018-11-21T15:34:49.766Z,982.697
2018-11-21T15:36:50.108Z,982.724
2018-11-21T15:38:50.044Z,982.745
2018-11-21T15:40:50.522Z,982.775
2018-11-21T15:42:50.570Z,982.828
2018-11-21T15:44:50.487Z,982.844
2018-11-21T15:46:49.719Z,982.852
2018-11-21T15:48:49.647Z,982.912
2018-11-21T15:50:49.607Z,982.921
2018-11-21T15:52:53.406Z,982.954
2018-11-21T15:54:50.366Z,982.958
2018-11-21T15:56:50.527Z,982.973
2018-11-21T15:58:50.515Z,982.991
2018-11-21T16:00:50.440Z,982.983
2018-11-21T16:02:50.491Z,982.994
2018-11-21T16:04:49.742Z,982.998
2018-11-21T16:06:50.024Z,982.998
2018-11-21T16:08:49.962Z,983.012
2018-11-21T16:10:49.926Z,983.029
2018-11-21T16:12:49.956Z,983.076
2018-11-21T16:14:49.916Z,983.123
2018-11-21T16:16:50.024Z,983.133
2018-11-21T16:18:50.026Z,983.158
2018-11-21T16:20:49.984Z,983.199
2018-11-21T16:22:49.987Z,983.233
2018-11-21T16:24:50.012Z,983.227
2018-11-21T16:26:50.233Z,983.220
2018-11-21T16:28:50.207Z,983.227
2018-11-21T16:30:50.227Z,983.248
2018-11-21T16:32:50.237Z,983.252
2018-11-21T16:34:49.620Z,983.267
2018-11-21T16:36:49.875Z,983.285
2018-11-21T16:38:49.869Z,983.292
2018-11-21T16:40:49.886Z,983.287
2018-11-21T16:42:49.849Z,983.285
2018-11-21T16:44:49.878Z,983.292
2018-11-21T16:46:50.340Z,983.319
2018-11-21T16:48:50.307Z,983.337
2018-11-21T16:50:50.272Z,983.340
2018-11-21T16:52:50.349Z,983.368
2018-11-21T16:54:50.212Z,983.385
2018-11-21T16:56:50.392Z,983.397
2018-11-21T16:58:50.354Z,983.402
2018-11-21T17:00:50.285Z,983.404
2018-11-21T17:02:50.229Z,983.435
2018-11-21T17:04:50.534Z,983.438
2018-11-21T17:06:49.644Z,983.478
2018-11-21T17:08:49.637Z,983.501
2018-11-21T17:10:49.675Z,983.508
2018-11-21T17:12:49.817Z,983.524
2018-11-21T17:14:51.007Z,983.527
2018-11-21T17:16:50.289Z,983.508
2018-11-21T17:18:50.258Z,983.514
2018-11-21T17:20:50.240Z,983.539
2018-11-21T17:22:50.180Z,983.548
2018-11-21T17:24:50.170Z,983.566
2018-11-21T17:26:50.317Z,983.581
2018-11-21T17:28:50.875Z,983.599
2018-11-21T17:30:49.880Z,983.608
2018-11-21T17:32:49.805Z,983.615
2018-11-21T17:34:50.187Z,983.626
2018-11-21T17:36:50.454Z,983.617
2018-11-21T17:38:50.365Z,983.621
2018-11-21T17:40:50.340Z,983.616
2018-11-21T17:42:50.258Z,983.631
2018-11-21T17:44:50.224Z,983.669
2018-11-21T17:46:50.389Z,983.686
2018-11-21T17:48:50.330Z,983.683
2018-11-21T17:50:50.337Z,983.690
2018-11-21T17:52:50.317Z,983.691
2018-11-21T17:54:50.268Z,983.740
2018-11-21T17:56:50.436Z,983.780
2018-11-21T17:58:50.328Z,983.767
2018-11-21T18:00:50.233Z,983.758
2018-11-21T18:02:50.224Z,983.775
2018-11-21T18:04:49.633Z,983.770
2018-11-21T18:06:49.761Z,983.776
2018-11-21T18:08:49.781Z,983.784
2018-11-21T18:10:49.810Z,983.786
2018-11-21T18:12:49.918Z,983.799
2018-11-21T18:14:49.837Z,983.816
2018-11-21T18:16:49.946Z,983.858
2018-11-21T18:18:49.878Z,983.883
2018-11-21T18:20:49.963Z,983.914
2018-11-21T18:22:49.942Z,983.919
2018-11-21T18:24:49.958Z,983.886
2018-11-21T18:26:50.084Z,983.879
2018-11-21T18:28:50.051Z,983.879
2018-11-21T18:30:50.038Z,983.854
2018-11-21T18:32:50.051Z,983.857
2018-11-21T18:34:50.362Z,983.833
2018-11-21T18:36:49.666Z,983.808
2018-11-21T18:38:49.662Z,983.804
2018-11-21T18:40:49.701Z,983.792
2018-11-21T18:42:49.809Z,983.782
2018-11-21T18:44:49.781Z,983.778
2018-11-21T18:46:50.009Z,983.793
2018-11-21T18:48:49.996Z,983.801
2018-11-21T18:50:50.023Z,983.791
2018-11-21T18:52:49.994Z,983.791
2018-11-21T18:54:50.020Z,983.803
2018-11-21T18:56:50.285Z,983.807
2018-11-21T18:58:50.304Z,983.848
2018-11-21T19:00:50.263Z,983.892
2018-11-21T19:02:50.271Z,983.922
2018-11-21T19:04:50.408Z,983.947
2018-11-21T19:06:50.502Z,983.982
2018-11-21T19:08:50.476Z,983.994
2018-11-21T19:10:50.490Z,984.028
2018-11-21T19:12:50.498Z,984.040
2018-11-21T19:14:50.488Z,984.044
2018-11-21T19:16:49.673Z,984.075
2018-11-21T19:18:49.646Z,984.106
2018-11-21T19:20:49.740Z,984.119
2018-11-21T19:22:49.795Z,984.122
2018-11-21T19:24:49.766Z,984.158
2018-11-21T19:26:49.868Z,984.186
2018-11-21T19:28:49.824Z,984.202
2018-11-21T19:30:49.800Z,984.222
2018-11-21T19:32:49.762Z,984.225
2018-11-21T19:34:50.176Z,984.253
2018-11-21T19:36:50.270Z,984.265
2018-11-21T19:38:50.179Z,984.307
2018-11-21T19:40:50.190Z,984.311
2018-11-21T19:42:50.198Z,984.350
2018-11-21T19:44:50.201Z,984.363
2018-11-21T19:46:50.419Z,984.364
2018-11-21T19:48:50.380Z,984.364
2018-11-21T19:54:50.254Z,984.424
2018-11-21T19:56:50.389Z,984.428
2018-11-21T19:58:50.402Z,984.455
2018-11-21T20:00:50.339Z,984.470
2018-11-21T20:02:50.319Z,984.467
2018-11-21T20:04:50.512Z,984.450
2018-11-21T20:06:49.738Z,984.443
2018-11-21T20:08:49.785Z,984.464
2018-11-21T20:10:49.714Z,984.486
2018-11-21T20:12:49.743Z,984.513
2018-11-21T20:14:49.740Z,984.519
2018-11-21T20:16:49.807Z,984.505
2018-11-21T20:18:49.809Z,984.506
2018-11-21T20:20:49.838Z,984.450
2018-11-21T20:22:49.799Z,984.453
2018-11-21T20:24:50.802Z,984.457
2018-11-21T20:26:50.111Z,984.443
2018-11-21T20:28:50.184Z,984.465
2018-11-21T20:30:50.148Z,984.468
2018-11-21T20:32:50.096Z,984.504
2018-11-21T20:34:50.341Z,984.504
2018-11-21T20:36:50.740Z,984.553
2018-11-21T20:38:49.711Z,984.584
2018-11-21T20:40:49.776Z,984.603
2018-11-21T20:42:49.878Z,984.620
2018-11-21T20:44:49.857Z,984.616
2018-11-21T20:46:49.992Z,984.613
2018-11-21T20:48:49.912Z,984.626
2018-11-21T20:50:49.888Z,984.609
2018-11-21T20:52:50.029Z,984.541
2018-11-21T20:54:49.980Z,984.536
2018-11-21T20:56:50.220Z,984.542
2018-11-21T20:58:50.244Z,984.540
2018-11-21T21:00:50.250Z,984.543
2018-11-21T21:02:50.243Z,984.541
2018-11-21T21:04:50.599Z,984.539
2018-11-21T21:06:49.868Z,984.519
2018-11-21T21:08:49.815Z,984.510
2018-11-21T21:10:50.055Z,984.484
2018-11-21T21:12:50.031Z,984.493
2018-11-21T21:14:50.034Z,984.502
2018-11-21T21:16:50.159Z,984.487
2018-11-21T21:18:50.195Z,984.504
2018-11-21T21:20:50.164Z,984.490
2018-11-21T21:22:50.311Z,984.483
2018-11-21T21:24:50.272Z,984.518
2018-11-21T21:26:50.420Z,984.533
2018-11-21T21:28:50.406Z,984.537
2018-11-21T21:30:50.504Z,984.530
2018-11-21T21:32:50.529Z,984.525
2018-11-21T21:34:49.980Z,984.525
2018-11-21T21:36:50.268Z,984.553
2018-11-21T21:38:50.262Z,984.569
2018-11-21T21:40:50.213Z,984.596
2018-11-21T21:42:50.187Z,984.608
2018-11-21T21:44:50.181Z,984.601
2018-11-21T21:46:50.410Z,984.607
2018-11-21T21:48:50.400Z,984.592
2018-11-21T21:50:50.428Z,984.616
2018-11-21T21:52:50.382Z,984.649
2018-11-21T21:54:50.435Z,984.658
2018-11-21T21:56:49.660Z,984.674
2018-11-21T21:58:49.678Z,984.665
2018-11-21T22:00:49.757Z,984.682
2018-11-21T22:02:49.771Z,984.713
2018-11-21T22:04:50.098Z,984.713
2018-11-21T22:06:50.306Z,984.736
2018-11-21T22:08:50.350Z,984.739
2018-11-21T22:10:50.324Z,984.756
2018-11-21T22:12:50.262Z,984.753
2018-11-21T22:14:50.170Z,984.778
2018-11-21T22:16:50.343Z,984.799
2018-11-21T22:18:50.233Z,984.828
2018-11-21T22:20:50.241Z,984.855
2018-11-21T22:22:50.187Z,984.855
2018-11-21T22:24:50.197Z,984.905
2018-11-21T22:26:50.328Z,984.933
2018-11-21T22:28:50.253Z,984.946
2018-11-21T22:30:50.250Z,984.943
2018-11-21T22:32:50.188Z,984.938
2018-11-21T22:34:50.476Z,984.938
2018-11-21T22:36:49.679Z,984.932
2018-11-21T22:38:49.676Z,984.941
2018-11-21T22:40:49.696Z,984.974
2018-11-21T22:42:49.638Z,984.978
2018-11-21T22:44:49.721Z,984.989
2018-11-21T22:46:50.019Z,984.999
2018-11-21T22:48:50.119Z,984.997
2018-11-21T22:50:50.098Z,985.009
2018-11-21T22:52:50.073Z,985.009
2018-11-21T22:54:50.123Z,985.024
2018-11-21T22:56:50.269Z,985.013
2018-11-21T22:58:50.246Z,984.989
2018-11-21T23:00:50.224Z,984.974
2018-11-21T23:02:50.329Z,984.972
2018-11-21T23:04:49.671Z,984.984
2018-11-21T23:06:49.889Z,984.983
2018-11-21T23:08:49.847Z,985.004
2018-11-21T23:10:49.812Z,985.032
2018-11-21T23:12:49.910Z,985.019
2018-11-21T23:14:49.875Z,985.020
2018-11-21T23:16:50.088Z,985.025
2018-11-21T23:18:50.058Z,985.016
2018-11-21T23:20:50.051Z,985.011
2018-11-21T23:22:50.001Z,985.021
2018-11-21T23:24:49.954Z,985.022
2018-11-21T23:26:50.133Z,985.039
2018-11-21T23:28:50.120Z,985.041
2018-11-21T23:30:50.082Z,985.020
2018-11-21T23:32:50.022Z,985.024
2018-11-21T23:34:50.357Z,985.030
2018-11-21T23:36:50.342Z,985.016
2018-11-21T23:38:50.285Z,985.027
2018-11-21T23:40:50.316Z,985.027
2018-11-21T23:42:50.291Z,985.025
2018-11-21T23:44:50.290Z,985.037
2018-11-21T23:46:50.496Z,985.035
2018-11-21T23:48:50.389Z,985.029
2018-11-21T23:50:50.419Z,985.013
2018-11-21T23:52:50.326Z,984.969
2018-11-21T23:54:50.226Z,984.954
2018-11-21T23:57:15.690Z,984.959
2018-11-21T23:58:50.360Z,984.978
